Time;durP1;ratioP1;P1;durP2;ratioP2;P2;SDS_P1;SDS_P2;PMS_P1;PMS_P2;Temp;Humidity;BMP_temperature;BMP_pressure;BME280_temperature;BME280_humidity;BME280_pressure;Samples;Min_cycle;Max_cycle;Signal;HPM_P1;HPM_P2
2023/12/17 00:01:55;;;;;;;1.77;1.05;;;;;;;;;;5095594;28;20370;-20
2023/12/17 00:04:22;;;;;;;1.60;1.05;;;;;;;;;;5095905;28;20118;-25
2023/12/17 00:06:48;;;;;;;1.33;1.05;;;;;;;;;;5096689;28;20221;-20
2023/12/17 00:09:14;;;;;;;1.02;1.02;;;;;;;;;;5096712;28;20354;-21
2023/12/17 00:11:41;;;;;;;1.33;1.20;;;;;;;;;;5096683;28;20028;-19
2023/12/17 00:14:07;;;;;;;1.20;1.10;;;;;;;;;;5096605;28;20027;-19
2023/12/17 00:16:33;;;;;;;1.42;1.33;;;;;;;;;;5096494;28;20056;-22
2023/12/17 00:18:59;;;;;;;1.00;0.90;;;;;;;;;;5096524;28;20028;-22
2023/12/17 00:21:25;;;;;;;1.42;0.93;;;;;;;;;;5096390;28;20047;-19
2023/12/17 00:23:51;;;;;;;1.10;1.00;;;;;;;;;;5096895;28;20047;-19
2023/12/17 00:26:17;;;;;;;0.90;0.70;;;;;;;;;;5096370;28;20447;-21
2023/12/17 00:28:43;;;;;;;1.58;1.20;;;;;;;;;;5096539;28;20179;-18
2023/12/17 00:31:10;;;;;;;1.55;1.45;;;;;;;;;;5096214;28;20035;-22
2023/12/17 00:33:36;;;;;;;1.40;1.30;;;;;;;;;;5096765;28;20035;-25
2023/12/17 00:36:02;;;;;;;0.80;0.80;;;;;;;;;;5096463;28;20447;-21
2023/12/17 00:38:29;;;;;;;2.50;1.33;;;;;;;;;;5096401;28;20028;-21
2023/12/17 00:40:55;;;;;;;1.40;1.10;;;;;;;;;;5096044;28;20099;-20
2023/12/17 00:43:21;;;;;;;1.65;1.13;;;;;;;;;;5096240;28;20028;-19
2023/12/17 00:45:47;;;;;;;1.33;1.23;;;;;;;;;;5095673;28;20414;-21
2023/12/17 00:48:13;;;;;;;1.55;1.45;;;;;;;;;;5095409;28;20497;-20
2023/12/17 00:50:39;;;;;;;0.90;0.90;;;;;;;;;;5095865;28;20474;-23
2023/12/17 00:53:06;;;;;;;1.75;1.25;;;;;;;;;;5096098;28;20028;-21
2023/12/17 00:55:32;;;;;;;1.25;1.10;;;;;;;;;;5096062;28;20441;-21
2023/12/17 00:57:58;;;;;;;1.20;1.00;;;;;;;;;;5095759;28;20038;-18
2023/12/17 01:00:24;;;;;;;1.30;1.20;;;;;;;;;;5095708;28;20320;-21
2023/12/17 01:02:50;;;;;;;1.30;1.10;;;;;;;;;;5095460;28;20371;-21
2023/12/17 01:05:16;;;;;;;1.10;1.00;;;;;;;;;;5096187;28;20077;-19
2023/12/17 01:07:42;;;;;;;1.15;0.93;;;;;;;;;;5094579;28;20050;-20
2023/12/17 01:10:09;;;;;;;1.23;1.10;;;;;;;;;;5095600;28;20438;-21
2023/12/17 01:12:35;;;;;;;1.05;1.05;;;;;;;;;;5095744;28;20379;-19
2023/12/17 01:15:01;;;;;;;1.35;1.23;;;;;;;;;;5095678;28;20377;-19
2023/12/17 01:17:27;;;;;;;1.17;1.00;;;;;;;;;;5095722;28;20024;-20
2023/12/17 01:19:53;;;;;;;1.05;0.90;;;;;;;;;;5095384;28;20047;-21
2023/12/17 01:22:19;;;;;;;0.90;0.90;;;;;;;;;;5095263;28;20042;-18
2023/12/17 01:24:49;;;;;;;1.13;1.02;;;;;;;;;;5095292;28;20024;-21
2023/12/17 01:27:15;;;;;;;0.95;0.90;;;;;;;;;;5095272;28;20473;-21
2023/12/17 01:29:41;;;;;;;1.08;0.98;;;;;;;;;;5095100;28;20435;-20
2023/12/17 01:32:07;;;;;;;1.20;1.10;;;;;;;;;;5095449;28;20389;-18
2023/12/17 01:34:34;;;;;;;1.13;1.02;;;;;;;;;;5095147;28;20028;-25
2023/12/17 01:37:00;;;;;;;1.33;1.02;;;;;;;;;;5095113;28;20392;-20
2023/12/17 01:39:26;;;;;;;1.13;1.00;;;;;;;;;;5095589;28;20421;-18
2023/12/17 01:41:52;;;;;;;1.90;1.05;;;;;;;;;;5094997;28;20028;-20
2023/12/17 01:44:19;;;;;;;2.08;1.10;;;;;;;;;;5094938;28;20020;-21
2023/12/17 01:46:45;;;;;;;1.40;1.30;;;;;;;;;;5094872;28;20077;-18
2023/12/17 01:49:12;;;;;;;1.80;1.38;;;;;;;;;;5094962;28;20081;-21
2023/12/17 01:51:38;;;;;;;1.70;1.20;;;;;;;;;;5094920;28;20020;-21
2023/12/17 01:54:04;;;;;;;1.23;1.10;;;;;;;;;;5095163;28;20031;-18
2023/12/17 01:56:30;;;;;;;1.00;0.95;;;;;;;;;;5095103;28;20355;-20
2023/12/17 01:58:57;;;;;;;0.73;0.73;;;;;;;;;;5094619;28;20060;-21
2023/12/17 02:01:23;;;;;;;1.42;1.33;;;;;;;;;;5094985;28;20451;-19
2023/12/17 02:03:50;;;;;;;0.95;0.90;;;;;;;;;;5094479;28;20083;-21
2023/12/17 02:06:16;;;;;;;0.95;0.95;;;;;;;;;;5094715;28;20036;-21
2023/12/17 02:08:42;;;;;;;1.10;1.00;;;;;;;;;;5095006;28;20320;-19
2023/12/17 02:11:08;;;;;;;1.10;1.10;;;;;;;;;;5094674;28;20051;-23
2023/12/17 02:13:35;;;;;;;1.33;1.20;;;;;;;;;;5094991;28;20501;-19
2023/12/17 02:16:01;;;;;;;1.60;1.50;;;;;;;;;;5094625;28;20051;-21
2023/12/17 02:18:27;;;;;;;1.95;1.33;;;;;;;;;;5094930;28;20381;-22
2023/12/17 02:20:54;;;;;;;1.25;1.15;;;;;;;;;;5093636;28;20028;-19
2023/12/17 02:23:20;;;;;;;1.38;1.10;;;;;;;;;;5095044;28;20032;-22
2023/12/17 02:25:46;;;;;;;1.55;1.10;;;;;;;;;;5095074;28;20035;-20
2023/12/17 02:28:12;;;;;;;1.40;1.13;;;;;;;;;;5094821;28;20103;-17
2023/12/17 02:30:39;;;;;;;1.63;1.52;;;;;;;;;;5094446;28;20404;-20
2023/12/17 02:33:05;;;;;;;1.10;1.05;;;;;;;;;;5094491;28;20032;-23
2023/12/17 02:35:31;;;;;;;1.10;1.00;;;;;;;;;;5094709;28;20042;-20
2023/12/17 02:37:57;;;;;;;1.73;1.20;;;;;;;;;;5094442;28;20028;-23
2023/12/17 02:40:23;;;;;;;1.73;1.25;;;;;;;;;;5094444;28;20085;-24
2023/12/17 02:42:49;;;;;;;1.08;1.00;;;;;;;;;;5094347;28;20095;-21
2023/12/17 02:45:15;;;;;;;1.50;0.98;;;;;;;;;;5094284;28;20107;-20
2023/12/17 02:47:41;;;;;;;1.40;1.30;;;;;;;;;;5094373;28;20036;-21
2023/12/17 02:50:08;;;;;;;1.45;1.00;;;;;;;;;;5094580;28;20062;-20
2023/12/17 02:52:34;;;;;;;1.45;0.90;;;;;;;;;;5094567;28;20024;-20
2023/12/17 02:55:00;;;;;;;1.67;1.15;;;;;;;;;;5094837;28;20153;-20
2023/12/17 02:57:27;;;;;;;1.17;1.15;;;;;;;;;;5094555;28;20020;-18
2023/12/17 02:59:53;;;;;;;1.13;1.05;;;;;;;;;;5094410;28;20089;-20
2023/12/17 03:02:20;;;;;;;1.08;1.00;;;;;;;;;;5093994;28;20046;-25
2023/12/17 03:04:46;;;;;;;0.88;0.88;;;;;;;;;;5094807;28;20016;-21
2023/12/17 03:07:12;;;;;;;1.00;1.00;;;;;;;;;;5094726;28;20034;-19
2023/12/17 03:09:38;;;;;;;1.20;1.10;;;;;;;;;;5094684;28;20516;-19
2023/12/17 03:12:05;;;;;;;1.38;1.27;;;;;;;;;;5098101;28;20024;-19
2023/12/17 03:14:34;;;;;;;0.90;0.82;;;;;;;;;;5097786;28;20077;-23
2023/12/17 03:17:00;;;;;;;1.17;1.08;;;;;;;;;;5097792;28;20031;-21
2023/12/17 03:19:26;;;;;;;2.22;1.77;;;;;;;;;;5097653;28;20012;-24
2023/12/17 03:21:52;;;;;;;1.00;0.90;;;;;;;;;;5096622;28;20417;-21
2023/12/17 03:24:18;;;;;;;1.48;1.38;;;;;;;;;;5097643;28;20020;-23
2023/12/17 03:26:45;;;;;;;1.13;1.02;;;;;;;;;;5097834;28;20055;-22
2023/12/17 03:29:11;;;;;;;1.60;1.20;;;;;;;;;;5098077;28;20020;-22
2023/12/17 03:31:37;;;;;;;1.10;1.10;;;;;;;;;;5097387;28;20051;-22
2023/12/17 03:34:03;;;;;;;1.35;1.25;;;;;;;;;;5097698;28;20039;-20
2023/12/17 03:36:29;;;;;;;1.23;1.13;;;;;;;;;;5097342;28;20106;-22
2023/12/17 03:38:55;;;;;;;1.30;1.20;;;;;;;;;;5097336;28;20099;-21
2023/12/17 03:41:26;;;;;;;1.00;0.90;;;;;;;;;;5097567;28;20031;-21
2023/12/17 03:43:53;;;;;;;1.05;0.95;;;;;;;;;;5097424;28;20055;-20
2023/12/17 03:46:20;;;;;;;1.17;1.10;;;;;;;;;;5097132;28;20067;-17
2023/12/17 03:48:46;;;;;;;1.05;0.95;;;;;;;;;;5097169;28;20039;-24
2023/12/17 03:51:13;;;;;;;0.95;0.85;;;;;;;;;;5097111;28;20343;-20
2023/12/17 03:53:39;;;;;;;1.45;1.30;;;;;;;;;;5097079;28;20039;-20
2023/12/17 03:56:12;;;;;;;1.40;1.30;;;;;;;;;;5097295;28;20020;-24
2023/12/17 03:58:38;;;;;;;1.38;1.13;;;;;;;;;;5097253;28;20355;-23
2023/12/17 04:01:05;;;;;;;1.30;1.20;;;;;;;;;;5096806;28;20079;-21
2023/12/17 04:03:32;;;;;;;2.13;1.92;;;;;;;;;;5096830;28;20074;-21
2023/12/17 04:05:59;;;;;;;1.73;1.10;;;;;;;;;;5097344;28;20099;-20
2023/12/17 04:08:25;;;;;;;0.95;0.95;;;;;;;;;;5096777;28;20356;-20
2023/12/17 04:10:51;;;;;;;1.30;1.20;;;;;;;;;;5096727;28;20351;-20
2023/12/17 04:13:18;;;;;;;1.55;1.05;;;;;;;;;;5096651;28;20035;-17
2023/12/17 04:15:44;;;;;;;1.02;1.00;;;;;;;;;;5096548;28;20039;-21
2023/12/17 04:18:10;;;;;;;0.80;0.80;;;;;;;;;;5096589;28;20089;-21
2023/12/17 04:20:36;;;;;;;1.27;1.00;;;;;;;;;;5096750;28;20032;-19
2023/12/17 04:23:03;;;;;;;1.17;1.10;;;;;;;;;;5096618;28;20032;-22
2023/12/17 04:25:30;;;;;;;1.13;1.13;;;;;;;;;;5096693;28;20443;-20
2023/12/17 04:27:56;;;;;;;1.08;0.90;;;;;;;;;;5096388;28;20101;-22
2023/12/17 04:30:22;;;;;;;0.85;0.85;;;;;;;;;;5096231;28;20099;-21
2023/12/17 04:32:48;;;;;;;1.20;1.10;;;;;;;;;;5096219;28;20023;-21
2023/12/17 04:35:14;;;;;;;0.85;0.85;;;;;;;;;;5096441;28;20024;-18
2023/12/17 04:37:41;;;;;;;1.35;1.05;;;;;;;;;;5095277;28;20024;-21
2023/12/17 04:40:07;;;;;;;0.98;0.95;;;;;;;;;;5096133;28;20094;-19
2023/12/17 04:42:33;;;;;;;0.88;0.85;;;;;;;;;;5096011;28;20078;-19
2023/12/17 04:44:59;;;;;;;0.98;0.90;;;;;;;;;;5096214;28;20358;-22
2023/12/17 04:47:26;;;;;;;0.77;0.77;;;;;;;;;;5095994;28;20105;-21
2023/12/17 04:49:52;;;;;;;1.05;0.82;;;;;;;;;;5095930;28;20086;-19
2023/12/17 04:52:18;;;;;;;0.90;0.80;;;;;;;;;;5096455;28;20031;-22
2023/12/17 04:54:44;;;;;;;1.05;1.05;;;;;;;;;;5096645;28;20052;-20
2023/12/17 04:57:10;;;;;;;0.82;0.82;;;;;;;;;;5096089;28;20028;-19
2023/12/17 04:59:37;;;;;;;0.70;0.70;;;;;;;;;;5095754;28;20028;-20
2023/12/17 05:02:03;;;;;;;0.80;0.80;;;;;;;;;;5095452;28;20024;-21
2023/12/17 05:04:29;;;;;;;0.70;0.70;;;;;;;;;;5095984;28;20020;-20
2023/12/17 05:06:55;;;;;;;0.80;0.80;;;;;;;;;;5095892;28;20338;-23
2023/12/17 05:09:21;;;;;;;0.90;0.90;;;;;;;;;;5095613;28;20091;-24
2023/12/17 05:11:47;;;;;;;0.98;0.98;;;;;;;;;;5095825;28;20111;-22
2023/12/17 05:14:13;;;;;;;0.80;0.80;;;;;;;;;;5095760;28;20028;-21
2023/12/17 05:16:41;;;;;;;0.98;0.95;;;;;;;;;;5095352;28;20036;-20
2023/12/17 05:19:09;;;;;;;1.23;1.13;;;;;;;;;;5095426;28;20099;-21
2023/12/17 05:21:35;;;;;;;1.10;0.90;;;;;;;;;;5095338;28;20036;-20
2023/12/17 05:24:02;;;;;;;1.05;0.95;;;;;;;;;;5095842;28;20100;-20
2023/12/17 05:26:29;;;;;;;1.00;1.00;;;;;;;;;;5095293;28;20515;-21
2023/12/17 05:28:55;;;;;;;0.90;0.70;;;;;;;;;;5095262;28;20020;-20
2023/12/17 05:31:21;;;;;;;1.25;0.90;;;;;;;;;;5095192;28;20020;-21
2023/12/17 05:33:49;;;;;;;0.90;0.82;;;;;;;;;;5095032;28;20039;-21
2023/12/17 05:36:15;;;;;;;1.10;1.00;;;;;;;;;;5095437;28;20494;-21
2023/12/17 05:38:41;;;;;;;1.50;1.40;;;;;;;;;;5095121;28;20401;-21
2023/12/17 05:41:07;;;;;;;0.82;0.82;;;;;;;;;;5095319;28;20095;-23
2023/12/17 05:43:35;;;;;;;1.13;1.02;;;;;;;;;;5094962;28;20020;-19
2023/12/17 05:46:02;;;;;;;0.82;0.82;;;;;;;;;;5095197;28;20354;-21
2023/12/17 05:48:28;;;;;;;0.80;0.80;;;;;;;;;;5094934;28;20103;-21
2023/12/17 05:50:54;;;;;;;0.63;0.63;;;;;;;;;;5095179;28;20031;-19
2023/12/17 05:53:20;;;;;;;1.00;1.00;;;;;;;;;;5094926;28;20032;-25
2023/12/17 05:55:46;;;;;;;1.10;1.00;;;;;;;;;;5095435;28;20032;-18
2023/12/17 05:58:12;;;;;;;0.77;0.68;;;;;;;;;;5094860;28;20396;-21
2023/12/17 06:00:38;;;;;;;0.98;0.90;;;;;;;;;;5094760;28;20375;-22
2023/12/17 06:03:05;;;;;;;0.93;0.93;;;;;;;;;;5094630;28;20048;-18
2023/12/17 06:05:31;;;;;;;0.90;0.90;;;;;;;;;;5093835;28;20527;-20
2023/12/17 06:07:57;;;;;;;0.70;0.70;;;;;;;;;;5094777;28;20358;-23
2023/12/17 06:10:23;;;;;;;0.82;0.82;;;;;;;;;;5094736;28;20016;-21
2023/12/17 06:12:49;;;;;;;0.70;0.70;;;;;;;;;;5094750;28;20024;-20
2023/12/17 06:15:15;;;;;;;0.70;0.70;;;;;;;;;;5094851;28;20363;-21
2023/12/17 06:17:42;;;;;;;0.80;0.80;;;;;;;;;;5094626;28;20020;-18
2023/12/17 06:20:09;;;;;;;0.85;0.80;;;;;;;;;;5094599;28;20035;-21
2023/12/17 06:22:35;;;;;;;1.13;1.05;;;;;;;;;;5094560;28;20024;-18
2023/12/17 06:25:01;;;;;;;0.90;0.90;;;;;;;;;;5094509;28;20028;-22
2023/12/17 06:27:27;;;;;;;1.05;1.05;;;;;;;;;;5094607;28;20351;-20
2023/12/17 06:29:54;;;;;;;2.75;0.90;;;;;;;;;;5095026;28;20074;-18
2023/12/17 06:32:20;;;;;;;0.82;0.82;;;;;;;;;;5094472;28;20048;-22
2023/12/17 06:34:46;;;;;;;0.90;0.90;;;;;;;;;;5094488;28;20029;-20
2023/12/17 06:37:12;;;;;;;1.17;0.90;;;;;;;;;;5094421;28;20106;-20
2023/12/17 06:39:42;;;;;;;1.23;0.88;;;;;;;;;;5094392;28;20066;-20
2023/12/17 06:42:11;;;;;;;1.17;0.80;;;;;;;;;;5095118;28;20119;-23
2023/12/17 06:44:37;;;;;;;0.60;0.60;;;;;;;;;;5095168;28;20020;-20
2023/12/17 06:47:04;;;;;;;0.73;0.65;;;;;;;;;;5098357;28;20028;-20
2023/12/17 06:49:31;;;;;;;1.15;1.00;;;;;;;;;;5098362;28;20012;-19
2023/12/17 06:51:57;;;;;;;0.65;0.65;;;;;;;;;;5098532;28;20359;-18
2023/12/17 06:54:23;;;;;;;0.80;0.80;;;;;;;;;;5098477;28;20027;-20
2023/12/17 06:56:50;;;;;;;1.00;1.00;;;;;;;;;;5098573;28;20454;-20
2023/12/17 06:59:16;;;;;;;0.77;0.77;;;;;;;;;;5098393;28;20474;-18
2023/12/17 07:01:42;;;;;;;0.88;0.88;;;;;;;;;;5098017;28;20036;-19
2023/12/17 07:04:08;;;;;;;0.80;0.80;;;;;;;;;;5097767;28;20485;-20
2023/12/17 07:06:36;;;;;;;1.17;0.90;;;;;;;;;;5098250;28;20024;-21
2023/12/17 07:09:02;;;;;;;0.88;0.88;;;;;;;;;;5097896;28;20031;-25
2023/12/17 07:11:28;;;;;;;1.10;0.90;;;;;;;;;;5097896;28;20024;-19
2023/12/17 07:13:54;;;;;;;1.20;1.00;;;;;;;;;;5097849;28;20028;-26
2023/12/17 07:16:24;;;;;;;0.80;0.80;;;;;;;;;;5097776;28;20413;-24
2023/12/17 07:18:50;;;;;;;0.98;0.90;;;;;;;;;;5097772;28;20099;-24
2023/12/17 07:21:17;;;;;;;0.98;0.82;;;;;;;;;;5097964;28;20078;-21
2023/12/17 07:23:43;;;;;;;1.10;1.00;;;;;;;;;;5097596;28;20032;-18
2023/12/17 07:26:09;;;;;;;1.00;1.00;;;;;;;;;;5097869;28;20119;-23
2023/12/17 07:28:36;;;;;;;1.00;0.85;;;;;;;;;;5097544;28;20028;-22
2023/12/17 07:31:02;;;;;;;0.85;0.85;;;;;;;;;;5097529;28;20028;-21
2023/12/17 07:33:28;;;;;;;1.38;1.00;;;;;;;;;;5097771;28;20028;-21
2023/12/17 07:35:54;;;;;;;0.88;0.88;;;;;;;;;;5097446;28;20024;-23
2023/12/17 07:38:20;;;;;;;0.70;0.70;;;;;;;;;;5097896;28;20381;-20
2023/12/17 07:40:46;;;;;;;1.75;1.27;;;;;;;;;;5097292;28;20443;-20
2023/12/17 07:43:13;;;;;;;0.90;0.90;;;;;;;;;;5097724;28;20032;-20
2023/12/17 07:45:39;;;;;;;0.70;0.70;;;;;;;;;;5097485;28;20020;-19
2023/12/17 07:48:05;;;;;;;0.75;0.75;;;;;;;;;;5097457;28;20066;-22
2023/12/17 07:50:31;;;;;;;0.98;0.93;;;;;;;;;;5096194;28;20035;-21
2023/12/17 07:52:57;;;;;;;0.90;0.80;;;;;;;;;;5097355;28;20035;-19
2023/12/17 07:55:24;;;;;;;1.13;0.95;;;;;;;;;;5096964;28;20447;-21
2023/12/17 07:57:50;;;;;;;0.90;0.90;;;;;;;;;;5097041;28;20105;-21
2023/12/17 08:00:16;;;;;;;1.20;1.10;;;;;;;;;;5096876;28;20466;-22
2023/12/17 08:02:42;;;;;;;0.70;0.70;;;;;;;;;;5096810;28;20121;-21
2023/12/17 08:05:09;;;;;;;0.85;0.80;;;;;;;;;;5097199;28;20036;-23
2023/12/17 08:07:36;;;;;;;0.85;0.85;;;;;;;;;;5096846;28;20030;-24
2023/12/17 08:10:03;;;;;;;1.85;1.10;;;;;;;;;;5096730;28;20032;-20
2023/12/17 08:12:29;;;;;;;1.20;0.80;;;;;;;;;;5096719;28;20028;-20
2023/12/17 08:14:55;;;;;;;2.58;0.80;;;;;;;;;;5096618;28;20036;-22
2023/12/17 08:17:22;;;;;;;1.20;1.10;;;;;;;;;;5096641;28;20062;-21
2023/12/17 08:19:49;;;;;;;0.73;0.73;;;;;;;;;;5096899;28;20028;-21
2023/12/17 08:22:15;;;;;;;0.90;0.90;;;;;;;;;;5096702;28;20098;-21
2023/12/17 08:24:41;;;;;;;1.10;0.93;;;;;;;;;;5096503;28;20020;-17
2023/12/17 08:27:08;;;;;;;1.48;1.38;;;;;;;;;;5096973;28;20027;-22
2023/12/17 08:29:34;;;;;;;1.33;0.85;;;;;;;;;;5096788;28;20116;-25
2023/12/17 08:32:00;;;;;;;0.82;0.82;;;;;;;;;;5096382;28;20031;-20
2023/12/17 08:34:31;;;;;;;1.10;1.00;;;;;;;;;;5096535;28;20031;-19
2023/12/17 08:36:57;;;;;;;0.93;0.88;;;;;;;;;;5096561;28;20412;-20
2023/12/17 08:39:25;;;;;;;1.30;0.75;;;;;;;;;;5096212;28;20462;-22
2023/12/17 08:41:51;;;;;;;0.80;0.80;;;;;;;;;;5096950;28;20034;-21
2023/12/17 08:44:22;;;;;;;0.90;0.90;;;;;;;;;;5096297;28;20028;-21
2023/12/17 08:46:48;;;;;;;1.42;0.88;;;;;;;;;;5096360;28;20355;-22
2023/12/17 08:49:14;;;;;;;0.73;0.73;;;;;;;;;;5096542;28;20020;-21
2023/12/17 08:51:40;;;;;;;0.68;0.68;;;;;;;;;;5095990;28;20023;-24
2023/12/17 08:54:10;;;;;;;0.80;0.80;;;;;;;;;;5095939;28;20165;-26
2023/12/17 08:56:36;;;;;;;0.90;0.90;;;;;;;;;;5096120;28;20024;-20
2023/12/17 08:59:02;;;;;;;0.82;0.82;;;;;;;;;;5096062;28;20114;-25
2023/12/17 09:01:29;;;;;;;0.75;0.73;;;;;;;;;;5095647;28;20031;-22
2023/12/17 09:03:55;;;;;;;0.77;0.77;;;;;;;;;;5095513;28;20457;-23
2023/12/17 09:06:21;;;;;;;1.05;0.88;;;;;;;;;;5095973;28;20052;-23
2023/12/17 09:08:47;;;;;;;0.82;0.82;;;;;;;;;;5095205;28;20024;-18
2023/12/17 09:11:13;;;;;;;0.98;0.90;;;;;;;;;;5096111;28;20020;-20
2023/12/17 09:13:39;;;;;;;0.80;0.80;;;;;;;;;;5095806;28;20023;-20
2023/12/17 09:16:07;;;;;;;0.93;0.93;;;;;;;;;;5095567;28;20034;-17
2023/12/17 09:18:33;;;;;;;0.63;0.63;;;;;;;;;;5094516;28;20032;-20
2023/12/17 09:20:59;;;;;;;0.95;0.85;;;;;;;;;;5095401;28;20077;-23
2023/12/17 09:23:25;;;;;;;1.35;1.17;;;;;;;;;;5095537;28;20032;-20
2023/12/17 09:25:51;;;;;;;1.00;0.90;;;;;;;;;;5095353;28;20024;-20
2023/12/17 09:28:17;;;;;;;0.85;0.85;;;;;;;;;;5095604;28;20395;-21
2023/12/17 09:30:44;;;;;;;0.88;0.88;;;;;;;;;;5095226;28;20024;-19
2023/12/17 09:33:10;;;;;;;0.77;0.77;;;;;;;;;;5095447;28;20454;-21
2023/12/17 09:35:37;;;;;;;0.85;0.85;;;;;;;;;;5095173;28;20028;-21
2023/12/17 09:38:04;;;;;;;1.40;1.30;;;;;;;;;;5095109;28;20036;-22
2023/12/17 09:40:31;;;;;;;1.08;0.95;;;;;;;;;;5095180;28;20103;-19
2023/12/17 09:42:58;;;;;;;1.35;1.25;;;;;;;;;;5094978;28;20035;-23
2023/12/17 09:45:26;;;;;;;1.13;1.00;;;;;;;;;;5095096;28;20019;-20
2023/12/17 09:47:52;;;;;;;1.38;1.10;;;;;;;;;;5095025;28;20397;-21
2023/12/17 09:50:18;;;;;;;1.52;1.05;;;;;;;;;;5094999;28;20016;-21
2023/12/17 09:52:44;;;;;;;0.98;0.90;;;;;;;;;;5094927;28;20024;-20
2023/12/17 09:55:11;;;;;;;1.08;1.00;;;;;;;;;;5095175;28;20051;-20
2023/12/17 09:57:37;;;;;;;1.13;1.02;;;;;;;;;;5095172;28;20531;-21
2023/12/17 10:00:04;;;;;;;1.20;1.10;;;;;;;;;;5094815;28;20359;-21
2023/12/17 10:02:30;;;;;;;1.02;0.95;;;;;;;;;;5094755;28;20378;-20
2023/12/17 10:04:57;;;;;;;0.90;0.90;;;;;;;;;;5094800;28;20020;-19
2023/12/17 10:07:23;;;;;;;1.05;0.90;;;;;;;;;;5094704;28;20032;-21
2023/12/17 10:09:49;;;;;;;1.20;1.10;;;;;;;;;;5094752;28;20115;-20
2023/12/17 10:12:16;;;;;;;1.17;1.08;;;;;;;;;;5093753;28;20039;-21
2023/12/17 10:14:42;;;;;;;0.63;0.63;;;;;;;;;;5094903;28;20402;-19
2023/12/17 10:17:10;;;;;;;1.02;0.95;;;;;;;;;;5094933;28;20090;-25
2023/12/17 10:19:37;;;;;;;0.90;0.88;;;;;;;;;;5097239;28;20020;-21
2023/12/17 10:22:07;;;;;;;1.02;0.98;;;;;;;;;;5098863;28;20052;-19
2023/12/17 10:24:37;;;;;;;1.10;0.95;;;;;;;;;;5098843;28;20028;-23
2023/12/17 10:27:06;;;;;;;0.90;0.90;;;;;;;;;;5098795;28;20035;-18
2023/12/17 10:29:33;;;;;;;4.07;1.30;;;;;;;;;;5099203;28;20028;-21
2023/12/17 10:31:59;;;;;;;1.10;1.10;;;;;;;;;;5098659;28;20463;-21
2023/12/17 10:34:28;;;;;;;1.00;1.00;;;;;;;;;;5098672;28;20377;-18
2023/12/17 10:36:55;;;;;;;1.52;1.35;;;;;;;;;;5098546;28;20039;-21
2023/12/17 10:39:21;;;;;;;1.30;1.20;;;;;;;;;;5098539;28;20032;-20
2023/12/17 10:41:48;;;;;;;1.10;1.00;;;;;;;;;;5098454;28;20028;-18
2023/12/17 10:44:15;;;;;;;1.35;1.25;;;;;;;;;;5098390;28;20354;-19
2023/12/17 10:46:44;;;;;;;0.90;0.90;;;;;;;;;;5098577;28;20020;-19
2023/12/17 10:49:11;;;;;;;1.17;1.10;;;;;;;;;;5097355;28;20044;-21
2023/12/17 10:51:39;;;;;;;1.95;1.38;;;;;;;;;;5098311;28;20048;-18
2023/12/17 10:54:06;;;;;;;1.10;1.02;;;;;;;;;;5098223;28;20020;-20
2023/12/17 10:56:35;;;;;;;1.08;0.98;;;;;;;;;;5098761;28;20024;-19
2023/12/17 10:59:07;;;;;;;1.20;1.10;;;;;;;;;;5098656;28;20347;-20
2023/12/17 11:01:34;;;;;;;1.20;1.10;;;;;;;;;;5098093;28;20388;-20
2023/12/17 11:04:01;;;;;;;1.85;1.15;;;;;;;;;;5097861;28;20040;-22
2023/12/17 11:06:27;;;;;;;1.25;1.15;;;;;;;;;;5097951;28;20016;-21
2023/12/17 11:08:54;;;;;;;1.50;1.13;;;;;;;;;;5098219;28;20112;-18
2023/12/17 11:11:22;;;;;;;1.73;1.63;;;;;;;;;;5097905;28;20024;-22
2023/12/17 11:13:48;;;;;;;1.00;1.00;;;;;;;;;;5098413;28;20020;-20
2023/12/17 11:16:18;;;;;;;1.10;1.00;;;;;;;;;;5096912;28;20028;-21
2023/12/17 11:18:44;;;;;;;1.13;1.02;;;;;;;;;;5097777;28;20024;-21
2023/12/17 11:21:11;;;;;;;3.25;0.90;;;;;;;;;;5097660;28;20529;-19
2023/12/17 11:23:38;;;;;;;0.85;0.80;;;;;;;;;;5097575;28;20061;-19
2023/12/17 11:26:05;;;;;;;1.38;1.05;;;;;;;;;;5097620;28;20028;-20
2023/12/17 11:28:32;;;;;;;1.20;1.05;;;;;;;;;;5097610;28;20025;-18
2023/12/17 11:30:59;;;;;;;0.95;0.95;;;;;;;;;;5096959;28;20074;-21
2023/12/17 11:33:28;;;;;;;1.02;0.93;;;;;;;;;;5097754;28;20111;-21
2023/12/17 11:35:54;;;;;;;0.80;0.80;;;;;;;;;;5097504;28;20085;-20
2023/12/17 11:38:21;;;;;;;1.08;0.98;;;;;;;;;;5097923;28;20075;-21
2023/12/17 11:40:47;;;;;;;0.90;0.90;;;;;;;;;;5097354;28;20058;-22
2023/12/17 11:43:15;;;;;;;1.13;1.02;;;;;;;;;;5097174;28;20059;-21
2023/12/17 11:45:45;;;;;;;1.27;1.10;;;;;;;;;;5097463;28;20016;-19
2023/12/17 11:48:13;;;;;;;1.08;1.00;;;;;;;;;;5097504;28;20024;-22
2023/12/17 11:50:45;;;;;;;0.98;0.90;;;;;;;;;;5097115;28;20028;-20
2023/12/17 11:53:12;;;;;;;0.70;0.70;;;;;;;;;;5097047;28;20058;-20
2023/12/17 11:56:01;;;;;;;1.33;1.15;;;;;;;;;;5097366;28;20031;-18
2023/12/17 11:58:29;;;;;;;0.98;0.93;;;;;;;;;;5097333;28;20115;-22
2023/12/17 12:01:10;;;;;;;1.08;1.02;;;;;;;;;;5097149;28;20386;-18
2023/12/17 12:03:37;;;;;;;1.08;1.00;;;;;;;;;;5096677;28;20044;-20
2023/12/17 12:06:09;;;;;;;0.93;0.90;;;;;;;;;;5097140;28;20070;-21
2023/12/17 12:08:55;;;;;;;1.13;0.90;;;;;;;;;;5096759;28;20032;-20
2023/12/17 12:11:29;;;;;;;1.05;1.05;;;;;;;;;;5097068;28;20157;-25
2023/12/17 12:13:56;;;;;;;0.75;0.75;;;;;;;;;;5096777;28;20035;-21
2023/12/17 12:16:23;;;;;;;1.15;1.05;;;;;;;;;;5096620;28;20078;-19
2023/12/17 12:19:01;;;;;;;1.45;1.20;;;;;;;;;;5096585;28;20106;-18
2023/12/17 12:21:27;;;;;;;1.40;0.90;;;;;;;;;;5096584;28;20082;-19
2023/12/17 12:23:55;;;;;;;1.30;1.17;;;;;;;;;;5096503;28;20089;-18
2023/12/17 12:26:21;;;;;;;1.30;1.17;;;;;;;;;;5097020;28;20028;-20
2023/12/17 12:28:55;;;;;;;1.33;0.95;;;;;;;;;;5096461;28;20351;-20
2023/12/17 12:31:22;;;;;;;1.02;0.90;;;;;;;;;;5096578;28;20075;-21
2023/12/17 12:33:55;;;;;;;1.13;1.13;;;;;;;;;;5096257;28;20024;-20
2023/12/17 12:36:21;;;;;;;0.85;0.82;;;;;;;;;;5096300;28;20028;-21
2023/12/17 12:39:05;;;;;;;1.13;1.02;;;;;;;;;;5096267;28;20036;-21
2023/12/17 12:41:32;;;;;;;1.08;1.00;;;;;;;;;;5096376;28;20384;-20
2023/12/17 12:43:59;;;;;;;1.30;0.98;;;;;;;;;;5095201;28;20028;-21
2023/12/17 12:46:26;;;;;;;0.95;0.95;;;;;;;;;;5096010;28;20016;-21
2023/12/17 12:48:56;;;;;;;0.95;0.95;;;;;;;;;;5096037;28;20024;-25
2023/12/17 12:51:22;;;;;;;1.40;1.25;;;;;;;;;;5095966;28;20058;-24
2023/12/17 12:53:48;;;;;;;0.80;0.73;;;;;;;;;;5094987;28;20028;-19
2023/12/17 12:56:15;;;;;;;0.88;0.88;;;;;;;;;;5095905;28;20032;-17
2023/12/17 12:58:42;;;;;;;0.93;0.93;;;;;;;;;;5096131;28;20031;-20
2023/12/17 13:01:11;;;;;;;0.93;0.93;;;;;;;;;;5095987;28;20055;-23
2023/12/17 13:03:37;;;;;;;1.33;1.23;;;;;;;;;;5095522;28;20374;-20
2023/12/17 13:06:05;;;;;;;1.00;1.00;;;;;;;;;;5096227;28;20099;-21
2023/12/17 13:08:31;;;;;;;1.10;1.00;;;;;;;;;;5095905;28;20379;-21
2023/12/17 13:10:57;;;;;;;1.10;0.80;;;;;;;;;;5095913;28;20024;-21
2023/12/17 13:13:24;;;;;;;1.60;1.50;;;;;;;;;;5095595;28;20024;-21
2023/12/17 13:15:50;;;;;;;1.48;1.23;;;;;;;;;;5095475;28;20115;-22
2023/12/17 13:18:16;;;;;;;1.10;1.00;;;;;;;;;;5095405;28;20035;-19
2023/12/17 13:20:42;;;;;;;1.65;1.55;;;;;;;;;;5095479;28;20032;-17
2023/12/17 13:23:08;;;;;;;1.52;1.40;;;;;;;;;;5095320;28;20035;-21
2023/12/17 13:25:34;;;;;;;1.20;1.10;;;;;;;;;;5095627;28;20058;-20
2023/12/17 13:28:00;;;;;;;1.58;1.00;;;;;;;;;;5095578;28;20062;-18
2023/12/17 13:30:29;;;;;;;1.33;1.23;;;;;;;;;;5095207;28;20024;-20
2023/12/17 13:33:00;;;;;;;1.15;1.05;;;;;;;;;;5095183;28;20106;-20
2023/12/17 13:35:26;;;;;;;1.02;0.90;;;;;;;;;;5095454;28;20092;-18
2023/12/17 13:37:52;;;;;;;0.90;0.90;;;;;;;;;;5095154;28;20355;-20
2023/12/17 13:40:18;;;;;;;1.00;0.98;;;;;;;;;;5095101;28;20501;-19
2023/12/17 13:42:45;;;;;;;1.35;0.88;;;;;;;;;;5095269;28;20054;-21
2023/12/17 13:45:11;;;;;;;1.65;1.35;;;;;;;;;;5095031;28;20024;-20
2023/12/17 13:47:37;;;;;;;1.27;1.17;;;;;;;;;;5095297;28;20016;-20
2023/12/17 13:50:04;;;;;;;1.10;1.00;;;;;;;;;;5094970;28;20091;-18
2023/12/17 13:52:30;;;;;;;1.83;1.30;;;;;;;;;;5095485;28;20024;-19
2023/12/17 13:54:56;;;;;;;1.00;1.00;;;;;;;;;;5095358;28;20343;-19
2023/12/17 13:57:23;;;;;;;1.08;1.02;;;;;;;;;;5094898;28;20024;-21
2023/12/17 13:59:49;;;;;;;1.42;1.33;;;;;;;;;;5094761;28;20039;-23
2023/12/17 14:02:15;;;;;;;0.98;0.90;;;;;;;;;;5094788;28;20130;-19
2023/12/17 14:04:43;;;;;;;1.92;1.20;;;;;;;;;;5095083;28;20420;-20
2023/12/17 14:07:10;;;;;;;1.42;1.08;;;;;;;;;;5095011;28;20099;-22
2023/12/17 14:09:39;;;;;;;1.13;1.10;;;;;;;;;;5095019;28;20325;-22
2023/12/17 14:12:06;;;;;;;1.20;1.10;;;;;;;;;;5095029;28;20438;-23
2023/12/17 14:14:34;;;;;;;1.58;1.48;;;;;;;;;;5094685;28;20070;-20
2023/12/17 14:17:00;;;;;;;1.35;1.25;;;;;;;;;;5094661;28;20028;-19
2023/12/17 14:19:29;;;;;;;1.42;1.33;;;;;;;;;;5095422;28;20081;-19
2023/12/17 14:21:56;;;;;;;1.05;1.05;;;;;;;;;;5094697;28;20053;-21
2023/12/17 14:24:22;;;;;;;0.90;0.90;;;;;;;;;;5094615;28;20032;-21
2023/12/17 14:26:48;;;;;;;0.90;0.90;;;;;;;;;;5094877;28;20461;-20
2023/12/17 14:29:14;;;;;;;1.95;1.30;;;;;;;;;;5094607;28;20058;-19
2023/12/17 14:31:40;;;;;;;1.30;1.20;;;;;;;;;;5094801;28;20024;-24
2023/12/17 14:34:08;;;;;;;1.20;1.15;;;;;;;;;;5094807;28;20035;-21
2023/12/17 14:36:38;;;;;;;1.20;1.00;;;;;;;;;;5094457;28;20100;-20
2023/12/17 14:39:05;;;;;;;1.85;1.30;;;;;;;;;;5094434;28;20028;-18
2023/12/17 14:41:31;;;;;;;2.53;1.10;;;;;;;;;;5095005;28;20345;-20